sensor_id;sensor_type;location;lat;lon;timestamp;P1;durP1;ratioP1;P2;durP2;ratioP2
55220;SDS011;41089;51.448;6.604;2022-12-10T00:08:11;50.92;;;28.08;;
55220;SDS011;41089;51.448;6.604;2022-12-10T00:14:16;44.55;;;29.10;;
55220;SDS011;41089;51.448;6.604;2022-12-10T00:20:21;48.25;;;30.92;;
55220;SDS011;41089;51.448;6.604;2022-12-10T00:26:27;52.67;;;33.15;;
55220;SDS011;41089;51.448;6.604;2022-12-10T00:32:28;46.88;;;29.83;;
55220;SDS011;41089;51.448;6.604;2022-12-10T00:38:34;43.88;;;27.55;;
55220;SDS011;41089;51.448;6.604;2022-12-10T00:44:36;58.42;;;32.58;;
55220;SDS011;41089;51.448;6.604;2022-12-10T00:50:43;53.13;;;30.92;;
55220;SDS011;41089;51.448;6.604;2022-12-10T00:56:43;62.65;;;34.75;;
55220;SDS011;41089;51.448;6.604;2022-12-10T01:02:44;56.75;;;31.63;;
55220;SDS011;41089;51.448;6.604;2022-12-10T01:08:46;58.97;;;33.05;;
55220;SDS011;41089;51.448;6.604;2022-12-10T01:14:46;56.15;;;31.90;;
55220;SDS011;41089;51.448;6.604;2022-12-10T01:20:47;51.88;;;29.27;;
55220;SDS011;41089;51.448;6.604;2022-12-10T01:26:47;43.20;;;26.15;;
55220;SDS011;41089;51.448;6.604;2022-12-10T01:32:47;45.83;;;27.10;;
55220;SDS011;41089;51.448;6.604;2022-12-10T01:38:48;38.83;;;24.63;;
55220;SDS011;41089;51.448;6.604;2022-12-10T01:50:49;43.75;;;26.38;;
55220;SDS011;41089;51.448;6.604;2022-12-10T01:56:51;36.30;;;23.63;;
55220;SDS011;41089;51.448;6.604;2022-12-10T02:02:59;35.90;;;24.02;;
55220;SDS011;41089;51.448;6.604;2022-12-10T02:09:15;44.15;;;27.25;;
55220;SDS011;41089;51.448;6.604;2022-12-10T02:21:56;36.28;;;24.35;;
55220;SDS011;41089;51.448;6.604;2022-12-10T02:28:11;40.95;;;25.23;;
55220;SDS011;41089;51.448;6.604;2022-12-10T02:34:17;36.70;;;22.90;;
55220;SDS011;41089;51.448;6.604;2022-12-10T02:40:20;37.65;;;22.02;;
55220;SDS011;41089;51.448;6.604;2022-12-10T02:46:24;36.58;;;23.10;;
55220;SDS011;41089;51.448;6.604;2022-12-10T02:52:25;28.58;;;21.13;;
55220;SDS011;41089;51.448;6.604;2022-12-10T03:11:12;40.40;;;25.15;;
55220;SDS011;41089;51.448;6.604;2022-12-10T03:17:14;36.13;;;22.73;;
55220;SDS011;41089;51.448;6.604;2022-12-10T03:23:15;36.80;;;22.23;;
55220;SDS011;41089;51.448;6.604;2022-12-10T03:29:17;35.60;;;23.75;;
55220;SDS011;41089;51.448;6.604;2022-12-10T03:35:22;42.67;;;25.67;;
55220;SDS011;41089;51.448;6.604;2022-12-10T03:41:23;44.83;;;25.60;;
55220;SDS011;41089;51.448;6.604;2022-12-10T03:47:24;37.97;;;23.10;;
55220;SDS011;41089;51.448;6.604;2022-12-10T03:53:24;43.13;;;26.90;;
55220;SDS011;41089;51.448;6.604;2022-12-10T03:59:25;38.55;;;23.60;;
55220;SDS011;41089;51.448;6.604;2022-12-10T04:05:25;39.90;;;25.00;;
55220;SDS011;41089;51.448;6.604;2022-12-10T04:11:26;41.50;;;24.80;;
55220;SDS011;41089;51.448;6.604;2022-12-10T04:17:28;45.33;;;27.30;;
55220;SDS011;41089;51.448;6.604;2022-12-10T04:23:28;37.47;;;24.08;;
55220;SDS011;41089;51.448;6.604;2022-12-10T04:29:47;38.40;;;24.45;;
55220;SDS011;41089;51.448;6.604;2022-12-10T04:35:48;39.47;;;24.93;;
55220;SDS011;41089;51.448;6.604;2022-12-10T04:41:48;38.38;;;24.55;;
55220;SDS011;41089;51.448;6.604;2022-12-10T04:47:49;33.58;;;21.90;;
55220;SDS011;41089;51.448;6.604;2022-12-10T04:53:49;42.13;;;25.67;;
55220;SDS011;41089;51.448;6.604;2022-12-10T04:59:50;37.73;;;23.47;;
55220;SDS011;41089;51.448;6.604;2022-12-10T05:05:50;45.35;;;25.33;;
55220;SDS011;41089;51.448;6.604;2022-12-10T05:11:51;41.30;;;24.10;;
55220;SDS011;41089;51.448;6.604;2022-12-10T05:17:55;35.90;;;22.13;;
55220;SDS011;41089;51.448;6.604;2022-12-10T05:24:02;41.25;;;24.48;;
55220;SDS011;41089;51.448;6.604;2022-12-10T05:30:03;46.05;;;26.67;;
55220;SDS011;41089;51.448;6.604;2022-12-10T05:36:04;34.30;;;21.98;;
55220;SDS011;41089;51.448;6.604;2022-12-10T05:42:05;36.97;;;23.77;;
55220;SDS011;41089;51.448;6.604;2022-12-10T05:48:05;42.42;;;24.33;;
55220;SDS011;41089;51.448;6.604;2022-12-10T05:54:06;38.65;;;23.65;;
55220;SDS011;41089;51.448;6.604;2022-12-10T06:00:09;39.40;;;23.45;;
55220;SDS011;41089;51.448;6.604;2022-12-10T06:06:10;41.70;;;23.70;;
55220;SDS011;41089;51.448;6.604;2022-12-10T06:12:11;45.90;;;25.88;;
55220;SDS011;41089;51.448;6.604;2022-12-10T06:18:11;41.87;;;23.97;;
55220;SDS011;41089;51.448;6.604;2022-12-10T06:24:12;41.17;;;23.67;;
55220;SDS011;41089;51.448;6.604;2022-12-10T06:30:12;47.20;;;25.90;;
55220;SDS011;41089;51.448;6.604;2022-12-10T06:36:14;50.72;;;25.38;;
55220;SDS011;41089;51.448;6.604;2022-12-10T06:42:16;47.38;;;27.15;;
55220;SDS011;41089;51.448;6.604;2022-12-10T06:48:17;50.80;;;27.77;;
55220;SDS011;41089;51.448;6.604;2022-12-10T06:54:17;60.23;;;31.93;;
55220;SDS011;41089;51.448;6.604;2022-12-10T07:00:18;72.50;;;33.73;;
55220;SDS011;41089;51.448;6.604;2022-12-10T07:06:19;86.18;;;37.97;;
55220;SDS011;41089;51.448;6.604;2022-12-10T07:12:20;71.47;;;37.07;;
55220;SDS011;41089;51.448;6.604;2022-12-10T07:18:20;83.07;;;36.23;;
55220;SDS011;41089;51.448;6.604;2022-12-10T07:24:21;74.25;;;34.60;;
55220;SDS011;41089;51.448;6.604;2022-12-10T07:30:23;87.95;;;39.60;;
55220;SDS011;41089;51.448;6.604;2022-12-10T07:36:23;87.63;;;37.78;;
55220;SDS011;41089;51.448;6.604;2022-12-10T07:42:24;89.57;;;39.22;;
55220;SDS011;41089;51.448;6.604;2022-12-10T07:48:24;87.50;;;40.60;;
55220;SDS011;41089;51.448;6.604;2022-12-10T07:54:25;82.18;;;40.03;;
55220;SDS011;41089;51.448;6.604;2022-12-10T08:00:25;79.97;;;36.03;;
55220;SDS011;41089;51.448;6.604;2022-12-10T08:06:27;86.97;;;38.93;;
55220;SDS011;41089;51.448;6.604;2022-12-10T08:12:27;88.38;;;38.85;;
55220;SDS011;41089;51.448;6.604;2022-12-10T08:18:28;81.10;;;36.57;;
55220;SDS011;41089;51.448;6.604;2022-12-10T08:24:29;85.65;;;37.60;;
55220;SDS011;41089;51.448;6.604;2022-12-10T08:30:30;79.60;;;36.77;;
55220;SDS011;41089;51.448;6.604;2022-12-10T08:36:30;80.05;;;36.88;;
55220;SDS011;41089;51.448;6.604;2022-12-10T08:42:31;84.03;;;40.07;;
55220;SDS011;41089;51.448;6.604;2022-12-10T08:48:32;78.70;;;38.63;;
55220;SDS011;41089;51.448;6.604;2022-12-10T08:54:32;98.47;;;41.85;;
55220;SDS011;41089;51.448;6.604;2022-12-10T09:00:33;77.53;;;37.07;;
55220;SDS011;41089;51.448;6.604;2022-12-10T09:06:33;72.88;;;38.08;;
55220;SDS011;41089;51.448;6.604;2022-12-10T09:12:34;80.78;;;38.63;;
55220;SDS011;41089;51.448;6.604;2022-12-10T09:18:36;74.78;;;35.15;;
55220;SDS011;41089;51.448;6.604;2022-12-10T09:24:36;76.53;;;38.15;;
55220;SDS011;41089;51.448;6.604;2022-12-10T09:30:37;64.13;;;34.00;;
55220;SDS011;41089;51.448;6.604;2022-12-10T09:36:39;63.78;;;33.40;;
55220;SDS011;41089;51.448;6.604;2022-12-10T09:43:44;54.05;;;28.63;;
55220;SDS011;41089;51.448;6.604;2022-12-10T09:55:24;59.35;;;31.45;;
55220;SDS011;41089;51.448;6.604;2022-12-10T10:01:37;54.28;;;30.85;;
55220;SDS011;41089;51.448;6.604;2022-12-10T10:07:38;61.83;;;31.58;;
55220;SDS011;41089;51.448;6.604;2022-12-10T10:19:53;49.38;;;30.00;;
55220;SDS011;41089;51.448;6.604;2022-12-10T10:25:54;51.67;;;28.70;;
55220;SDS011;41089;51.448;6.604;2022-12-10T10:38:36;65.07;;;34.20;;
55220;SDS011;41089;51.448;6.604;2022-12-10T10:44:37;52.15;;;30.45;;
55220;SDS011;41089;51.448;6.604;2022-12-10T10:50:39;67.88;;;33.33;;
55220;SDS011;41089;51.448;6.604;2022-12-10T10:56:41;62.70;;;33.00;;
55220;SDS011;41089;51.448;6.604;2022-12-10T11:02:42;66.15;;;33.97;;
55220;SDS011;41089;51.448;6.604;2022-12-10T11:08:43;65.53;;;35.07;;
55220;SDS011;41089;51.448;6.604;2022-12-10T11:14:45;72.78;;;35.83;;
55220;SDS011;41089;51.448;6.604;2022-12-10T11:20:48;73.35;;;36.72;;
55220;SDS011;41089;51.448;6.604;2022-12-10T11:27:03;68.38;;;36.15;;
55220;SDS011;41089;51.448;6.604;2022-12-10T11:33:20;67.75;;;33.42;;
55220;SDS011;41089;51.448;6.604;2022-12-10T11:39:27;61.70;;;35.08;;
55220;SDS011;41089;51.448;6.604;2022-12-10T11:58:43;67.90;;;33.78;;
55220;SDS011;41089;51.448;6.604;2022-12-10T12:04:57;62.88;;;33.28;;
55220;SDS011;41089;51.448;6.604;2022-12-10T12:29:57;66.53;;;36.83;;
55220;SDS011;41089;51.448;6.604;2022-12-10T12:36:11;65.10;;;33.20;;
55220;SDS011;41089;51.448;6.604;2022-12-10T12:54:57;69.28;;;36.13;;
55220;SDS011;41089;51.448;6.604;2022-12-10T13:19:30;71.65;;;34.85;;
55220;SDS011;41089;51.448;6.604;2022-12-10T13:25:39;65.93;;;32.88;;
55220;SDS011;41089;51.448;6.604;2022-12-10T13:32:04;67.18;;;34.47;;
55220;SDS011;41089;51.448;6.604;2022-12-10T13:38:15;66.20;;;32.72;;
55220;SDS011;41089;51.448;6.604;2022-12-10T13:56:56;69.00;;;34.15;;
55220;SDS011;41089;51.448;6.604;2022-12-10T14:09:36;70.00;;;34.40;;
55220;SDS011;41089;51.448;6.604;2022-12-10T14:15:46;69.63;;;34.87;;
55220;SDS011;41089;51.448;6.604;2022-12-10T14:21:50;66.35;;;35.53;;
55220;SDS011;41089;51.448;6.604;2022-12-10T14:27:50;69.83;;;37.77;;
55220;SDS011;41089;51.448;6.604;2022-12-10T14:33:52;62.55;;;33.90;;
55220;SDS011;41089;51.448;6.604;2022-12-10T14:39:55;84.82;;;35.50;;
55220;SDS011;41089;51.448;6.604;2022-12-10T14:45:57;71.25;;;35.60;;
55220;SDS011;41089;51.448;6.604;2022-12-10T14:51:59;74.53;;;34.53;;
55220;SDS011;41089;51.448;6.604;2022-12-10T14:58:01;72.03;;;35.63;;
55220;SDS011;41089;51.448;6.604;2022-12-10T15:04:03;72.97;;;32.95;;
55220;SDS011;41089;51.448;6.604;2022-12-10T15:10:05;66.32;;;35.45;;
55220;SDS011;41089;51.448;6.604;2022-12-10T15:16:19;75.78;;;35.60;;
55220;SDS011;41089;51.448;6.604;2022-12-10T15:22:39;75.75;;;34.67;;
55220;SDS011;41089;51.448;6.604;2022-12-10T15:28:40;67.23;;;37.83;;
55220;SDS011;41089;51.448;6.604;2022-12-10T15:34:45;75.72;;;38.10;;
55220;SDS011;41089;51.448;6.604;2022-12-10T15:40:47;70.10;;;35.85;;
55220;SDS011;41089;51.448;6.604;2022-12-10T15:46:52;67.30;;;34.63;;
55220;SDS011;41089;51.448;6.604;2022-12-10T15:53:14;65.78;;;33.53;;
55220;SDS011;41089;51.448;6.604;2022-12-10T15:59:20;67.90;;;35.27;;
55220;SDS011;41089;51.448;6.604;2022-12-10T16:05:27;67.97;;;35.27;;
55220;SDS011;41089;51.448;6.604;2022-12-10T16:11:35;58.88;;;31.77;;
55220;SDS011;41089;51.448;6.604;2022-12-10T16:17:35;67.18;;;33.58;;
55220;SDS011;41089;51.448;6.604;2022-12-10T16:23:36;64.20;;;32.07;;
55220;SDS011;41089;51.448;6.604;2022-12-10T16:29:37;65.97;;;33.88;;
55220;SDS011;41089;51.448;6.604;2022-12-10T16:35:38;69.00;;;34.22;;
55220;SDS011;41089;51.448;6.604;2022-12-10T16:41:39;68.27;;;35.87;;
55220;SDS011;41089;51.448;6.604;2022-12-10T16:47:40;61.47;;;32.95;;
55220;SDS011;41089;51.448;6.604;2022-12-10T16:53:41;65.07;;;33.83;;
55220;SDS011;41089;51.448;6.604;2022-12-10T16:59:41;58.53;;;32.53;;
55220;SDS011;41089;51.448;6.604;2022-12-10T17:05:42;61.85;;;34.72;;
55220;SDS011;41089;51.448;6.604;2022-12-10T17:11:42;74.32;;;37.55;;
55220;SDS011;41089;51.448;6.604;2022-12-10T17:17:46;70.15;;;36.30;;
55220;SDS011;41089;51.448;6.604;2022-12-10T17:23:47;73.60;;;36.75;;
55220;SDS011;41089;51.448;6.604;2022-12-10T17:29:47;76.10;;;37.57;;
55220;SDS011;41089;51.448;6.604;2022-12-10T17:35:53;71.45;;;37.17;;
55220;SDS011;41089;51.448;6.604;2022-12-10T17:41:54;73.05;;;36.35;;
55220;SDS011;41089;51.448;6.604;2022-12-10T17:47:55;79.78;;;38.42;;
55220;SDS011;41089;51.448;6.604;2022-12-10T17:53:55;83.43;;;37.53;;
55220;SDS011;41089;51.448;6.604;2022-12-10T17:59:56;89.50;;;38.60;;
55220;SDS011;41089;51.448;6.604;2022-12-10T18:05:56;75.80;;;35.63;;
55220;SDS011;41089;51.448;6.604;2022-12-10T18:11:56;73.37;;;33.70;;
55220;SDS011;41089;51.448;6.604;2022-12-10T18:17:58;78.40;;;34.15;;
55220;SDS011;41089;51.448;6.604;2022-12-10T18:23:59;75.32;;;34.03;;
55220;SDS011;41089;51.448;6.604;2022-12-10T18:30:00;72.60;;;33.00;;
55220;SDS011;41089;51.448;6.604;2022-12-10T18:36:01;76.18;;;32.70;;
55220;SDS011;41089;51.448;6.604;2022-12-10T18:42:01;72.83;;;30.20;;
55220;SDS011;41089;51.448;6.604;2022-12-10T18:48:03;77.18;;;32.20;;
55220;SDS011;41089;51.448;6.604;2022-12-10T18:54:03;73.60;;;32.13;;
55220;SDS011;41089;51.448;6.604;2022-12-10T19:00:05;80.97;;;33.93;;
55220;SDS011;41089;51.448;6.604;2022-12-10T19:06:18;92.00;;;33.40;;
55220;SDS011;41089;51.448;6.604;2022-12-10T19:12:21;78.37;;;30.83;;
55220;SDS011;41089;51.448;6.604;2022-12-10T19:18:21;76.20;;;31.70;;
55220;SDS011;41089;51.448;6.604;2022-12-10T19:24:21;77.00;;;32.03;;
55220;SDS011;41089;51.448;6.604;2022-12-10T19:30:23;84.87;;;31.80;;
55220;SDS011;41089;51.448;6.604;2022-12-10T19:36:25;105.45;;;35.58;;
55220;SDS011;41089;51.448;6.604;2022-12-10T19:42:27;98.63;;;34.00;;
55220;SDS011;41089;51.448;6.604;2022-12-10T19:48:28;81.38;;;32.13;;
55220;SDS011;41089;51.448;6.604;2022-12-10T19:54:28;85.97;;;33.93;;
55220;SDS011;41089;51.448;6.604;2022-12-10T20:00:29;86.95;;;34.92;;
55220;SDS011;41089;51.448;6.604;2022-12-10T20:06:34;83.20;;;32.08;;
55220;SDS011;41089;51.448;6.604;2022-12-10T20:12:36;97.07;;;34.05;;
55220;SDS011;41089;51.448;6.604;2022-12-10T20:18:37;108.65;;;35.15;;
55220;SDS011;41089;51.448;6.604;2022-12-10T20:24:38;78.77;;;32.10;;
55220;SDS011;41089;51.448;6.604;2022-12-10T20:30:38;83.88;;;30.92;;
55220;SDS011;41089;51.448;6.604;2022-12-10T20:36:40;86.03;;;31.85;;
55220;SDS011;41089;51.448;6.604;2022-12-10T20:42:41;64.70;;;24.33;;
55220;SDS011;41089;51.448;6.604;2022-12-10T20:48:41;57.92;;;24.58;;
55220;SDS011;41089;51.448;6.604;2022-12-10T20:54:42;63.63;;;24.42;;
55220;SDS011;41089;51.448;6.604;2022-12-10T21:00:43;82.20;;;27.92;;
55220;SDS011;41089;51.448;6.604;2022-12-10T21:06:44;67.40;;;23.20;;
55220;SDS011;41089;51.448;6.604;2022-12-10T21:12:44;64.18;;;25.40;;
55220;SDS011;41089;51.448;6.604;2022-12-10T21:18:45;63.15;;;24.15;;
55220;SDS011;41089;51.448;6.604;2022-12-10T21:24:47;57.33;;;21.17;;
55220;SDS011;41089;51.448;6.604;2022-12-10T21:30:47;61.13;;;22.43;;
55220;SDS011;41089;51.448;6.604;2022-12-10T21:36:48;68.65;;;24.73;;
55220;SDS011;41089;51.448;6.604;2022-12-10T21:42:49;70.70;;;26.73;;
55220;SDS011;41089;51.448;6.604;2022-12-10T21:49:08;82.90;;;28.35;;
55220;SDS011;41089;51.448;6.604;2022-12-10T21:55:09;94.55;;;30.88;;
55220;SDS011;41089;51.448;6.604;2022-12-10T22:01:09;96.15;;;30.13;;
55220;SDS011;41089;51.448;6.604;2022-12-10T22:07:12;75.03;;;28.65;;
55220;SDS011;41089;51.448;6.604;2022-12-10T22:13:12;72.15;;;25.55;;
55220;SDS011;41089;51.448;6.604;2022-12-10T22:19:12;70.93;;;24.77;;
55220;SDS011;41089;51.448;6.604;2022-12-10T22:25:13;99.45;;;28.95;;
55220;SDS011;41089;51.448;6.604;2022-12-10T22:31:13;108.43;;;32.23;;
55220;SDS011;41089;51.448;6.604;2022-12-10T22:37:14;91.82;;;29.30;;
55220;SDS011;41089;51.448;6.604;2022-12-10T22:43:15;76.40;;;27.50;;
55220;SDS011;41089;51.448;6.604;2022-12-10T22:49:15;70.28;;;25.10;;
55220;SDS011;41089;51.448;6.604;2022-12-10T22:55:15;64.90;;;24.63;;
55220;SDS011;41089;51.448;6.604;2022-12-10T23:01:17;70.88;;;25.83;;
55220;SDS011;41089;51.448;6.604;2022-12-10T23:07:18;74.13;;;25.35;;
55220;SDS011;41089;51.448;6.604;2022-12-10T23:13:18;70.38;;;26.30;;
55220;SDS011;41089;51.448;6.604;2022-12-10T23:19:21;71.72;;;26.42;;
55220;SDS011;41089;51.448;6.604;2022-12-10T23:25:22;82.03;;;27.33;;
55220;SDS011;41089;51.448;6.604;2022-12-10T23:31:22;68.25;;;27.23;;
55220;SDS011;41089;51.448;6.604;2022-12-10T23:37:23;87.55;;;29.52;;
55220;SDS011;41089;51.448;6.604;2022-12-10T23:43:23;100.10;;;32.87;;
55220;SDS011;41089;51.448;6.604;2022-12-10T23:49:24;102.43;;;30.08;;
55220;SDS011;41089;51.448;6.604;2022-12-10T23:55:24;84.07;;;28.27;;
